sensor_id;sensor_type;location;lat;lon;timestamp;temperature;humidity
4828;DHT22;2428;48.732;9.148;2022-12-29T00:01:17;7.80;99.90
4828;DHT22;2428;48.732;9.148;2022-12-29T00:03:46;7.80;99.90
4828;DHT22;2428;48.732;9.148;2022-12-29T00:06:12;7.90;99.90
4828;DHT22;2428;48.732;9.148;2022-12-29T00:08:37;7.90;99.90
4828;DHT22;2428;48.732;9.148;2022-12-29T00:11:17;8.00;99.90
4828;DHT22;2428;48.732;9.148;2022-12-29T00:13:43;8.00;99.90
4828;DHT22;2428;48.732;9.148;2022-12-29T00:16:28;8.00;99.90
4828;DHT22;2428;48.732;9.148;2022-12-29T00:18:54;8.10;99.90
4828;DHT22;2428;48.732;9.148;2022-12-29T00:21:21;8.10;99.90
4828;DHT22;2428;48.732;9.148;2022-12-29T00:24:13;8.20;99.90
4828;DHT22;2428;48.732;9.148;2022-12-29T00:29:48;8.30;99.90
4828;DHT22;2428;48.732;9.148;2022-12-29T00:32:33;8.30;99.90
4828;DHT22;2428;48.732;9.148;2022-12-29T00:35:29;8.30;99.90
4828;DHT22;2428;48.732;9.148;2022-12-29T00:37:58;8.30;99.90
4828;DHT22;2428;48.732;9.148;2022-12-29T00:40:42;8.30;99.90
4828;DHT22;2428;48.732;9.148;2022-12-29T00:43:26;8.30;99.90
4828;DHT22;2428;48.732;9.148;2022-12-29T00:46:10;8.40;99.90
4828;DHT22;2428;48.732;9.148;2022-12-29T00:48:36;8.40;99.90
4828;DHT22;2428;48.732;9.148;2022-12-29T00:51:20;8.40;99.90
4828;DHT22;2428;48.732;9.148;2022-12-29T00:53:45;8.50;99.90
4828;DHT22;2428;48.732;9.148;2022-12-29T00:56:11;8.50;99.90
4828;DHT22;2428;48.732;9.148;2022-12-29T00:58:36;8.50;99.90
4828;DHT22;2428;48.732;9.148;2022-12-29T01:01:07;8.50;99.90
4828;DHT22;2428;48.732;9.148;2022-12-29T01:03:37;8.50;99.90
4828;DHT22;2428;48.732;9.148;2022-12-29T01:06:05;8.40;99.90
4828;DHT22;2428;48.732;9.148;2022-12-29T01:08:31;8.40;99.90
4828;DHT22;2428;48.732;9.148;2022-12-29T01:13:28;8.40;99.90
4828;DHT22;2428;48.732;9.148;2022-12-29T01:15:54;8.50;99.90
4828;DHT22;2428;48.732;9.148;2022-12-29T01:18:20;8.40;99.90
4828;DHT22;2428;48.732;9.148;2022-12-29T01:20:46;8.40;99.90
4828;DHT22;2428;48.732;9.148;2022-12-29T01:23:12;8.40;99.90
4828;DHT22;2428;48.732;9.148;2022-12-29T01:25:37;8.40;99.90
4828;DHT22;2428;48.732;9.148;2022-12-29T01:28:03;8.40;99.90
4828;DHT22;2428;48.732;9.148;2022-12-29T01:30:29;8.40;99.90
4828;DHT22;2428;48.732;9.148;2022-12-29T01:32:54;8.40;99.90
4828;DHT22;2428;48.732;9.148;2022-12-29T01:35:20;8.40;99.90
4828;DHT22;2428;48.732;9.148;2022-12-29T01:37:46;8.40;99.90
4828;DHT22;2428;48.732;9.148;2022-12-29T01:40:11;8.40;99.90
4828;DHT22;2428;48.732;9.148;2022-12-29T01:42:37;8.40;99.90
4828;DHT22;2428;48.732;9.148;2022-12-29T01:45:09;8.40;99.90
4828;DHT22;2428;48.732;9.148;2022-12-29T01:47:39;8.40;99.90
4828;DHT22;2428;48.732;9.148;2022-12-29T01:50:14;8.40;99.90
4828;DHT22;2428;48.732;9.148;2022-12-29T01:52:52;8.50;99.90
4828;DHT22;2428;48.732;9.148;2022-12-29T01:55:20;8.50;99.90
4828;DHT22;2428;48.732;9.148;2022-12-29T01:57:49;8.50;99.90
4828;DHT22;2428;48.732;9.148;2022-12-29T02:00:16;8.60;99.90
4828;DHT22;2428;48.732;9.148;2022-12-29T02:02:46;8.60;99.90
4828;DHT22;2428;48.732;9.148;2022-12-29T02:05:28;8.60;99.90
4828;DHT22;2428;48.732;9.148;2022-12-29T02:07:57;8.60;99.90
4828;DHT22;2428;48.732;9.148;2022-12-29T02:10:25;8.60;99.90
4828;DHT22;2428;48.732;9.148;2022-12-29T02:12:51;8.60;99.90
4828;DHT22;2428;48.732;9.148;2022-12-29T02:15:18;8.60;99.90
4828;DHT22;2428;48.732;9.148;2022-12-29T02:18:00;8.60;99.90
4828;DHT22;2428;48.732;9.148;2022-12-29T02:23:50;8.60;99.90
4828;DHT22;2428;48.732;9.148;2022-12-29T02:37:30;8.70;99.90
4828;DHT22;2428;48.732;9.148;2022-12-29T02:51:32;8.90;99.90
4828;DHT22;2428;48.732;9.148;2022-12-29T02:53:56;9.10;99.90
4828;DHT22;2428;48.732;9.148;2022-12-29T02:56:41;9.20;99.90
4828;DHT22;2428;48.732;9.148;2022-12-29T02:59:06;9.30;99.90
4828;DHT22;2428;48.732;9.148;2022-12-29T03:02:14;9.30;99.90
4828;DHT22;2428;48.732;9.148;2022-12-29T03:07:18;9.40;99.90
4828;DHT22;2428;48.732;9.148;2022-12-29T03:10:18;9.40;99.90
4828;DHT22;2428;48.732;9.148;2022-12-29T03:15:50;9.40;99.90
4828;DHT22;2428;48.732;9.148;2022-12-29T03:21:08;9.40;99.90
4828;DHT22;2428;48.732;9.148;2022-12-29T03:23:36;9.40;99.90
4828;DHT22;2428;48.732;9.148;2022-12-29T03:26:06;9.50;99.90
4828;DHT22;2428;48.732;9.148;2022-12-29T03:28:38;9.40;99.90
4828;DHT22;2428;48.732;9.148;2022-12-29T03:31:06;9.50;99.90
4828;DHT22;2428;48.732;9.148;2022-12-29T03:33:34;9.60;99.90
4828;DHT22;2428;48.732;9.148;2022-12-29T03:36:03;9.70;99.90
4828;DHT22;2428;48.732;9.148;2022-12-29T03:41:09;9.80;99.90
4828;DHT22;2428;48.732;9.148;2022-12-29T03:43:35;9.90;99.90
4828;DHT22;2428;48.732;9.148;2022-12-29T03:46:01;10.00;99.90
4828;DHT22;2428;48.732;9.148;2022-12-29T03:48:26;10.10;99.90
4828;DHT22;2428;48.732;9.148;2022-12-29T03:50:52;10.10;99.90
4828;DHT22;2428;48.732;9.148;2022-12-29T03:53:18;10.10;99.90
4828;DHT22;2428;48.732;9.148;2022-12-29T03:55:43;10.20;99.90
4828;DHT22;2428;48.732;9.148;2022-12-29T03:58:09;10.10;99.90
4828;DHT22;2428;48.732;9.148;2022-12-29T04:00:34;10.10;99.90
4828;DHT22;2428;48.732;9.148;2022-12-29T04:03:00;10.00;99.90
4828;DHT22;2428;48.732;9.148;2022-12-29T04:05:25;9.90;99.90
4828;DHT22;2428;48.732;9.148;2022-12-29T04:07:51;9.90;99.90
4828;DHT22;2428;48.732;9.148;2022-12-29T04:10:16;9.80;99.90
4828;DHT22;2428;48.732;9.148;2022-12-29T04:12:42;9.80;99.90
4828;DHT22;2428;48.732;9.148;2022-12-29T04:15:09;9.80;99.90
4828;DHT22;2428;48.732;9.148;2022-12-29T04:17:35;9.80;99.90
4828;DHT22;2428;48.732;9.148;2022-12-29T04:20:00;9.80;99.90
4828;DHT22;2428;48.732;9.148;2022-12-29T04:22:44;9.70;99.90
4828;DHT22;2428;48.732;9.148;2022-12-29T04:25:10;9.70;99.90
4828;DHT22;2428;48.732;9.148;2022-12-29T04:27:35;9.70;99.90
4828;DHT22;2428;48.732;9.148;2022-12-29T04:30:01;9.80;99.90
4828;DHT22;2428;48.732;9.148;2022-12-29T04:32:27;9.80;99.90
4828;DHT22;2428;48.732;9.148;2022-12-29T04:34:53;10.00;99.90
4828;DHT22;2428;48.732;9.148;2022-12-29T04:37:18;10.00;99.90
4828;DHT22;2428;48.732;9.148;2022-12-29T04:39:44;10.10;99.90
4828;DHT22;2428;48.732;9.148;2022-12-29T04:42:09;10.10;99.90
4828;DHT22;2428;48.732;9.148;2022-12-29T04:44:35;10.10;99.90
4828;DHT22;2428;48.732;9.148;2022-12-29T04:47:00;10.10;99.90
4828;DHT22;2428;48.732;9.148;2022-12-29T04:49:26;10.10;99.90
4828;DHT22;2428;48.732;9.148;2022-12-29T04:51:51;10.10;99.90
4828;DHT22;2428;48.732;9.148;2022-12-29T04:54:17;10.10;99.90
4828;DHT22;2428;48.732;9.148;2022-12-29T04:56:42;10.10;99.90
4828;DHT22;2428;48.732;9.148;2022-12-29T04:59:08;10.10;99.90
4828;DHT22;2428;48.732;9.148;2022-12-29T05:01:33;10.20;99.90
4828;DHT22;2428;48.732;9.148;2022-12-29T05:03:59;10.20;99.90
4828;DHT22;2428;48.732;9.148;2022-12-29T05:06:25;10.10;99.90
4828;DHT22;2428;48.732;9.148;2022-12-29T05:08:50;10.20;99.90
4828;DHT22;2428;48.732;9.148;2022-12-29T05:11:16;10.20;99.90
4828;DHT22;2428;48.732;9.148;2022-12-29T05:13:44;10.20;99.90
4828;DHT22;2428;48.732;9.148;2022-12-29T05:16:10;10.20;99.90
4828;DHT22;2428;48.732;9.148;2022-12-29T05:18:35;10.20;99.90
4828;DHT22;2428;48.732;9.148;2022-12-29T05:21:01;10.10;99.90
4828;DHT22;2428;48.732;9.148;2022-12-29T05:23:26;10.10;99.90
4828;DHT22;2428;48.732;9.148;2022-12-29T05:25:52;10.10;99.90
4828;DHT22;2428;48.732;9.148;2022-12-29T05:28:17;10.00;99.90
4828;DHT22;2428;48.732;9.148;2022-12-29T05:30:43;10.00;99.90
4828;DHT22;2428;48.732;9.148;2022-12-29T05:33:09;10.00;99.90
4828;DHT22;2428;48.732;9.148;2022-12-29T05:35:36;9.90;99.90
4828;DHT22;2428;48.732;9.148;2022-12-29T05:38:02;9.90;99.90
4828;DHT22;2428;48.732;9.148;2022-12-29T05:40:28;9.90;99.90
4828;DHT22;2428;48.732;9.148;2022-12-29T05:42:53;9.90;99.90
4828;DHT22;2428;48.732;9.148;2022-12-29T05:45:19;9.90;99.90
4828;DHT22;2428;48.732;9.148;2022-12-29T05:47:44;10.00;99.90
4828;DHT22;2428;48.732;9.148;2022-12-29T05:50:10;10.10;99.90
4828;DHT22;2428;48.732;9.148;2022-12-29T05:52:36;10.00;99.90
4828;DHT22;2428;48.732;9.148;2022-12-29T05:55:01;10.00;99.90
4828;DHT22;2428;48.732;9.148;2022-12-29T05:57:27;10.00;99.90
4828;DHT22;2428;48.732;9.148;2022-12-29T05:59:52;10.00;99.90
4828;DHT22;2428;48.732;9.148;2022-12-29T06:02:18;10.00;99.90
4828;DHT22;2428;48.732;9.148;2022-12-29T06:04:43;10.00;99.90
4828;DHT22;2428;48.732;9.148;2022-12-29T06:07:09;10.00;99.90
4828;DHT22;2428;48.732;9.148;2022-12-29T06:09:35;10.00;99.90
4828;DHT22;2428;48.732;9.148;2022-12-29T06:12:00;10.00;99.90
4828;DHT22;2428;48.732;9.148;2022-12-29T06:14:26;10.00;99.90
4828;DHT22;2428;48.732;9.148;2022-12-29T06:16:51;10.00;99.90
4828;DHT22;2428;48.732;9.148;2022-12-29T06:19:17;10.10;99.90
4828;DHT22;2428;48.732;9.148;2022-12-29T06:21:42;10.20;99.90
4828;DHT22;2428;48.732;9.148;2022-12-29T06:24:08;10.20;99.90
4828;DHT22;2428;48.732;9.148;2022-12-29T06:26:36;10.20;99.90
4828;DHT22;2428;48.732;9.148;2022-12-29T06:29:02;10.20;99.90
4828;DHT22;2428;48.732;9.148;2022-12-29T06:31:28;10.10;99.90
4828;DHT22;2428;48.732;9.148;2022-12-29T06:33:54;10.10;99.90
4828;DHT22;2428;48.732;9.148;2022-12-29T06:36:19;10.00;99.90
4828;DHT22;2428;48.732;9.148;2022-12-29T06:38:45;10.00;99.90
4828;DHT22;2428;48.732;9.148;2022-12-29T06:41:10;10.00;99.90
4828;DHT22;2428;48.732;9.148;2022-12-29T06:43:36;9.90;99.90
4828;DHT22;2428;48.732;9.148;2022-12-29T06:46:04;9.90;99.90
4828;DHT22;2428;48.732;9.148;2022-12-29T06:48:30;9.80;99.90
4828;DHT22;2428;48.732;9.148;2022-12-29T06:50:55;9.80;99.90
4828;DHT22;2428;48.732;9.148;2022-12-29T06:53:21;9.80;99.90
4828;DHT22;2428;48.732;9.148;2022-12-29T06:55:47;9.80;99.90
4828;DHT22;2428;48.732;9.148;2022-12-29T06:58:12;9.80;99.90
4828;DHT22;2428;48.732;9.148;2022-12-29T07:00:38;9.70;99.90
4828;DHT22;2428;48.732;9.148;2022-12-29T07:03:03;9.80;99.90
4828;DHT22;2428;48.732;9.148;2022-12-29T07:05:29;9.80;99.90
4828;DHT22;2428;48.732;9.148;2022-12-29T07:07:56;9.70;99.90
4828;DHT22;2428;48.732;9.148;2022-12-29T07:10:22;9.70;99.90
4828;DHT22;2428;48.732;9.148;2022-12-29T07:12:48;9.70;99.90
4828;DHT22;2428;48.732;9.148;2022-12-29T07:15:14;9.70;99.90
4828;DHT22;2428;48.732;9.148;2022-12-29T07:17:39;9.70;99.90
4828;DHT22;2428;48.732;9.148;2022-12-29T07:20:06;9.60;99.90
4828;DHT22;2428;48.732;9.148;2022-12-29T07:22:32;9.60;99.90
4828;DHT22;2428;48.732;9.148;2022-12-29T07:24:57;9.60;99.90
4828;DHT22;2428;48.732;9.148;2022-12-29T07:27:23;9.60;99.90
4828;DHT22;2428;48.732;9.148;2022-12-29T07:29:48;9.60;99.90
4828;DHT22;2428;48.732;9.148;2022-12-29T07:32:14;9.50;99.90
4828;DHT22;2428;48.732;9.148;2022-12-29T07:34:40;9.50;99.90
4828;DHT22;2428;48.732;9.148;2022-12-29T07:37:05;9.50;99.90
4828;DHT22;2428;48.732;9.148;2022-12-29T07:39:31;9.40;99.90
4828;DHT22;2428;48.732;9.148;2022-12-29T07:41:57;9.40;99.90
4828;DHT22;2428;48.732;9.148;2022-12-29T07:44:22;9.40;99.90
4828;DHT22;2428;48.732;9.148;2022-12-29T07:46:48;9.40;99.90
4828;DHT22;2428;48.732;9.148;2022-12-29T07:49:13;9.40;99.90
4828;DHT22;2428;48.732;9.148;2022-12-29T07:51:39;9.40;99.90
4828;DHT22;2428;48.732;9.148;2022-12-29T07:54:05;9.50;99.90
4828;DHT22;2428;48.732;9.148;2022-12-29T07:56:30;9.50;99.90
4828;DHT22;2428;48.732;9.148;2022-12-29T07:58:56;9.50;99.90
4828;DHT22;2428;48.732;9.148;2022-12-29T08:01:21;9.50;99.90
4828;DHT22;2428;48.732;9.148;2022-12-29T08:03:48;9.50;99.90
4828;DHT22;2428;48.732;9.148;2022-12-29T08:06:14;9.60;99.90
4828;DHT22;2428;48.732;9.148;2022-12-29T08:08:40;9.60;99.90
4828;DHT22;2428;48.732;9.148;2022-12-29T08:11:05;9.60;99.90
4828;DHT22;2428;48.732;9.148;2022-12-29T08:13:31;9.60;99.90
4828;DHT22;2428;48.732;9.148;2022-12-29T08:15:59;9.70;99.90
4828;DHT22;2428;48.732;9.148;2022-12-29T08:18:25;9.70;99.90
4828;DHT22;2428;48.732;9.148;2022-12-29T08:20:51;9.70;99.90
4828;DHT22;2428;48.732;9.148;2022-12-29T08:23:16;9.70;99.90
4828;DHT22;2428;48.732;9.148;2022-12-29T08:25:42;9.80;99.90
4828;DHT22;2428;48.732;9.148;2022-12-29T08:28:07;9.80;99.90
4828;DHT22;2428;48.732;9.148;2022-12-29T08:30:33;9.80;99.90
4828;DHT22;2428;48.732;9.148;2022-12-29T08:32:59;9.80;99.90
4828;DHT22;2428;48.732;9.148;2022-12-29T08:35:24;9.90;99.90
4828;DHT22;2428;48.732;9.148;2022-12-29T08:37:50;9.90;99.90
4828;DHT22;2428;48.732;9.148;2022-12-29T08:40:15;9.90;99.90
4828;DHT22;2428;48.732;9.148;2022-12-29T08:42:41;10.00;99.90
4828;DHT22;2428;48.732;9.148;2022-12-29T08:45:07;10.00;99.90
4828;DHT22;2428;48.732;9.148;2022-12-29T08:47:33;10.00;99.90
4828;DHT22;2428;48.732;9.148;2022-12-29T08:49:59;10.10;99.90
4828;DHT22;2428;48.732;9.148;2022-12-29T08:52:24;10.10;99.90
4828;DHT22;2428;48.732;9.148;2022-12-29T08:54:50;10.10;99.90
4828;DHT22;2428;48.732;9.148;2022-12-29T08:57:16;10.10;99.90
4828;DHT22;2428;48.732;9.148;2022-12-29T08:59:41;10.10;99.90
4828;DHT22;2428;48.732;9.148;2022-12-29T09:02:11;10.10;99.90
4828;DHT22;2428;48.732;9.148;2022-12-29T09:04:37;10.20;99.90
4828;DHT22;2428;48.732;9.148;2022-12-29T09:07:02;10.20;99.90
4828;DHT22;2428;48.732;9.148;2022-12-29T09:09:28;10.20;99.90
4828;DHT22;2428;48.732;9.148;2022-12-29T09:11:53;10.20;99.90
4828;DHT22;2428;48.732;9.148;2022-12-29T09:14:19;10.20;99.90
4828;DHT22;2428;48.732;9.148;2022-12-29T09:16:46;10.20;99.90
4828;DHT22;2428;48.732;9.148;2022-12-29T09:19:31;10.20;99.90
4828;DHT22;2428;48.732;9.148;2022-12-29T09:21:56;10.20;99.90
4828;DHT22;2428;48.732;9.148;2022-12-29T09:24:22;10.30;99.90
4828;DHT22;2428;48.732;9.148;2022-12-29T09:26:50;10.30;99.90
4828;DHT22;2428;48.732;9.148;2022-12-29T09:29:16;10.30;99.90
4828;DHT22;2428;48.732;9.148;2022-12-29T09:31:41;10.40;99.90
4828;DHT22;2428;48.732;9.148;2022-12-29T09:34:07;10.40;99.90
4828;DHT22;2428;48.732;9.148;2022-12-29T09:36:32;10.40;99.90
4828;DHT22;2428;48.732;9.148;2022-12-29T09:38:58;10.50;99.90
4828;DHT22;2428;48.732;9.148;2022-12-29T09:41:28;10.50;99.90
4828;DHT22;2428;48.732;9.148;2022-12-29T09:44:23;10.50;99.90
4828;DHT22;2428;48.732;9.148;2022-12-29T09:46:53;10.60;99.90
4828;DHT22;2428;48.732;9.148;2022-12-29T09:49:42;10.60;99.90
4828;DHT22;2428;48.732;9.148;2022-12-29T09:52:15;10.70;99.90
4828;DHT22;2428;48.732;9.148;2022-12-29T09:54:59;10.70;99.90
4828;DHT22;2428;48.732;9.148;2022-12-29T09:57:39;10.80;99.90
4828;DHT22;2428;48.732;9.148;2022-12-29T10:03:15;10.90;99.90
4828;DHT22;2428;48.732;9.148;2022-12-29T10:05:57;11.00;99.90
4828;DHT22;2428;48.732;9.148;2022-12-29T10:16:28;11.00;99.90
4828;DHT22;2428;48.732;9.148;2022-12-29T10:24:53;11.10;99.90
4828;DHT22;2428;48.732;9.148;2022-12-29T10:27:20;11.10;99.90
4828;DHT22;2428;48.732;9.148;2022-12-29T10:29:53;11.20;99.90
4828;DHT22;2428;48.732;9.148;2022-12-29T10:35:38;11.20;99.90
4828;DHT22;2428;48.732;9.148;2022-12-29T10:38:19;11.50;99.90
4828;DHT22;2428;48.732;9.148;2022-12-29T10:43:29;11.70;99.90
4828;DHT22;2428;48.732;9.148;2022-12-29T10:45:58;11.60;99.90
4828;DHT22;2428;48.732;9.148;2022-12-29T10:48:28;11.70;99.90
4828;DHT22;2428;48.732;9.148;2022-12-29T10:50:57;11.70;99.90
4828;DHT22;2428;48.732;9.148;2022-12-29T10:53:37;11.80;99.90
4828;DHT22;2428;48.732;9.148;2022-12-29T10:56:09;11.90;99.90
4828;DHT22;2428;48.732;9.148;2022-12-29T10:58:39;11.90;99.90
4828;DHT22;2428;48.732;9.148;2022-12-29T11:01:08;11.90;99.90
4828;DHT22;2428;48.732;9.148;2022-12-29T11:03:49;11.90;99.90
4828;DHT22;2428;48.732;9.148;2022-12-29T11:06:24;12.00;99.90
4828;DHT22;2428;48.732;9.148;2022-12-29T11:08:57;12.00;99.90
4828;DHT22;2428;48.732;9.148;2022-12-29T11:11:33;11.90;99.90
4828;DHT22;2428;48.732;9.148;2022-12-29T11:16:38;11.80;99.90
4828;DHT22;2428;48.732;9.148;2022-12-29T11:19:04;11.80;99.90
4828;DHT22;2428;48.732;9.148;2022-12-29T11:21:31;11.80;99.90
4828;DHT22;2428;48.732;9.148;2022-12-29T11:24:02;11.80;99.90
4828;DHT22;2428;48.732;9.148;2022-12-29T11:26:29;11.80;99.90
4828;DHT22;2428;48.732;9.148;2022-12-29T11:31:30;11.70;99.90
4828;DHT22;2428;48.732;9.148;2022-12-29T11:33:55;11.70;99.90
4828;DHT22;2428;48.732;9.148;2022-12-29T11:36:22;11.70;99.90
4828;DHT22;2428;48.732;9.148;2022-12-29T11:38:51;11.60;99.90
4828;DHT22;2428;48.732;9.148;2022-12-29T11:41:26;11.50;99.90
4828;DHT22;2428;48.732;9.148;2022-12-29T11:44:04;11.50;99.90
4828;DHT22;2428;48.732;9.148;2022-12-29T11:46:35;11.40;99.90
4828;DHT22;2428;48.732;9.148;2022-12-29T11:49:03;11.40;99.90
4828;DHT22;2428;48.732;9.148;2022-12-29T11:51:49;11.40;99.90
4828;DHT22;2428;48.732;9.148;2022-12-29T11:54:21;11.40;99.90
4828;DHT22;2428;48.732;9.148;2022-12-29T11:56:48;11.40;99.90
4828;DHT22;2428;48.732;9.148;2022-12-29T12:01:53;11.50;99.90
4828;DHT22;2428;48.732;9.148;2022-12-29T12:04:23;11.50;99.90
4828;DHT22;2428;48.732;9.148;2022-12-29T12:07:02;11.50;99.90
4828;DHT22;2428;48.732;9.148;2022-12-29T12:09:37;11.50;99.90
4828;DHT22;2428;48.732;9.148;2022-12-29T12:12:05;11.50;99.90
4828;DHT22;2428;48.732;9.148;2022-12-29T12:14:42;11.50;99.90
4828;DHT22;2428;48.732;9.148;2022-12-29T12:17:18;11.40;99.90
4828;DHT22;2428;48.732;9.148;2022-12-29T12:19:55;11.40;99.90
4828;DHT22;2428;48.732;9.148;2022-12-29T12:22:31;11.40;99.90
4828;DHT22;2428;48.732;9.148;2022-12-29T12:25:12;11.40;99.90
4828;DHT22;2428;48.732;9.148;2022-12-29T12:27:51;11.40;99.90
4828;DHT22;2428;48.732;9.148;2022-12-29T12:30:22;11.40;99.90
4828;DHT22;2428;48.732;9.148;2022-12-29T12:32:56;11.40;99.90
4828;DHT22;2428;48.732;9.148;2022-12-29T12:43:39;11.10;99.90
4828;DHT22;2428;48.732;9.148;2022-12-29T12:46:42;11.00;99.90
4828;DHT22;2428;48.732;9.148;2022-12-29T12:52:20;10.80;99.90
4828;DHT22;2428;48.732;9.148;2022-12-29T13:00:13;10.80;99.90
4828;DHT22;2428;48.732;9.148;2022-12-29T13:05:57;10.90;99.90
4828;DHT22;2428;48.732;9.148;2022-12-29T13:08:49;11.00;99.90
4828;DHT22;2428;48.732;9.148;2022-12-29T13:17:50;11.10;99.90
4828;DHT22;2428;48.732;9.148;2022-12-29T13:22:59;11.20;99.90
4828;DHT22;2428;48.732;9.148;2022-12-29T13:25:35;11.20;99.90
4828;DHT22;2428;48.732;9.148;2022-12-29T13:31:04;11.20;99.90
4828;DHT22;2428;48.732;9.148;2022-12-29T13:36:33;11.10;99.90
4828;DHT22;2428;48.732;9.148;2022-12-29T13:39:26;11.10;99.90
4828;DHT22;2428;48.732;9.148;2022-12-29T13:41:54;11.00;99.90
4828;DHT22;2428;48.732;9.148;2022-12-29T13:44:44;11.00;99.90
4828;DHT22;2428;48.732;9.148;2022-12-29T13:47:36;11.00;99.90
4828;DHT22;2428;48.732;9.148;2022-12-29T13:50:05;11.00;99.90
4828;DHT22;2428;48.732;9.148;2022-12-29T13:55:45;10.90;99.90
4828;DHT22;2428;48.732;9.148;2022-12-29T14:00:57;10.90;99.90
4828;DHT22;2428;48.732;9.148;2022-12-29T14:06:20;10.90;99.90
4828;DHT22;2428;48.732;9.148;2022-12-29T14:08:48;10.90;99.90
4828;DHT22;2428;48.732;9.148;2022-12-29T14:11:16;10.90;99.90
4828;DHT22;2428;48.732;9.148;2022-12-29T14:13:45;11.00;99.90
4828;DHT22;2428;48.732;9.148;2022-12-29T14:16:25;11.00;99.90
4828;DHT22;2428;48.732;9.148;2022-12-29T14:18:52;11.00;99.90
4828;DHT22;2428;48.732;9.148;2022-12-29T14:21:22;11.00;99.90
4828;DHT22;2428;48.732;9.148;2022-12-29T14:23:50;11.00;99.90
4828;DHT22;2428;48.732;9.148;2022-12-29T14:28:53;10.90;99.90
4828;DHT22;2428;48.732;9.148;2022-12-29T14:36:35;10.90;99.90
4828;DHT22;2428;48.732;9.148;2022-12-29T14:39:02;10.90;99.90
4828;DHT22;2428;48.732;9.148;2022-12-29T14:42:04;10.90;99.90
4828;DHT22;2428;48.732;9.148;2022-12-29T14:44:30;10.90;99.90
4828;DHT22;2428;48.732;9.148;2022-12-29T14:47:00;10.90;99.90
4828;DHT22;2428;48.732;9.148;2022-12-29T14:49:31;10.80;99.90
4828;DHT22;2428;48.732;9.148;2022-12-29T14:57:05;10.80;99.90
4828;DHT22;2428;48.732;9.148;2022-12-29T14:59:32;10.80;99.90
4828;DHT22;2428;48.732;9.148;2022-12-29T15:02:01;10.80;99.90
4828;DHT22;2428;48.732;9.148;2022-12-29T15:04:33;10.80;99.90
4828;DHT22;2428;48.732;9.148;2022-12-29T15:07:00;10.80;99.90
4828;DHT22;2428;48.732;9.148;2022-12-29T15:12:12;10.80;99.90
4828;DHT22;2428;48.732;9.148;2022-12-29T15:14:56;10.80;99.90
4828;DHT22;2428;48.732;9.148;2022-12-29T15:17:28;10.80;99.90
4828;DHT22;2428;48.732;9.148;2022-12-29T15:19:56;10.80;99.90
4828;DHT22;2428;48.732;9.148;2022-12-29T15:22:22;10.80;99.90
4828;DHT22;2428;48.732;9.148;2022-12-29T15:24:54;10.80;99.90
4828;DHT22;2428;48.732;9.148;2022-12-29T15:27:25;10.70;99.90
4828;DHT22;2428;48.732;9.148;2022-12-29T15:30:02;10.70;99.90
4828;DHT22;2428;48.732;9.148;2022-12-29T15:32:39;10.70;99.90
4828;DHT22;2428;48.732;9.148;2022-12-29T15:35:32;10.70;99.90
4828;DHT22;2428;48.732;9.148;2022-12-29T15:37:59;10.70;99.90
4828;DHT22;2428;48.732;9.148;2022-12-29T15:40:30;10.70;99.90
4828;DHT22;2428;48.732;9.148;2022-12-29T15:45:32;10.70;99.90
4828;DHT22;2428;48.732;9.148;2022-12-29T15:47:58;10.70;99.90
4828;DHT22;2428;48.732;9.148;2022-12-29T15:50:34;10.70;99.90
4828;DHT22;2428;48.732;9.148;2022-12-29T15:53:00;10.70;99.90
4828;DHT22;2428;48.732;9.148;2022-12-29T15:55:28;10.80;99.90
4828;DHT22;2428;48.732;9.148;2022-12-29T15:57:57;10.80;99.90
4828;DHT22;2428;48.732;9.148;2022-12-29T16:00:34;10.80;99.90
4828;DHT22;2428;48.732;9.148;2022-12-29T16:03:03;10.80;99.90
4828;DHT22;2428;48.732;9.148;2022-12-29T16:05:38;10.80;99.90
4828;DHT22;2428;48.732;9.148;2022-12-29T16:08:32;10.80;99.90
4828;DHT22;2428;48.732;9.148;2022-12-29T16:11:01;10.60;99.90
4828;DHT22;2428;48.732;9.148;2022-12-29T16:13:34;10.40;99.90
4828;DHT22;2428;48.732;9.148;2022-12-29T16:16:31;10.10;99.90
4828;DHT22;2428;48.732;9.148;2022-12-29T16:18:57;9.90;99.90
4828;DHT22;2428;48.732;9.148;2022-12-29T16:21:27;9.80;99.90
4828;DHT22;2428;48.732;9.148;2022-12-29T16:23:55;9.70;99.90
4828;DHT22;2428;48.732;9.148;2022-12-29T16:26:23;9.70;99.90
4828;DHT22;2428;48.732;9.148;2022-12-29T16:28:56;9.60;99.90
4828;DHT22;2428;48.732;9.148;2022-12-29T16:31:25;9.50;99.90
4828;DHT22;2428;48.732;9.148;2022-12-29T16:33:54;9.40;99.90
4828;DHT22;2428;48.732;9.148;2022-12-29T16:36:29;9.50;99.90
4828;DHT22;2428;48.732;9.148;2022-12-29T16:41:39;9.40;99.90
4828;DHT22;2428;48.732;9.148;2022-12-29T16:44:33;9.40;99.90
4828;DHT22;2428;48.732;9.148;2022-12-29T16:49:36;9.40;99.90
4828;DHT22;2428;48.732;9.148;2022-12-29T16:52:12;9.40;99.90
4828;DHT22;2428;48.732;9.148;2022-12-29T16:54:39;9.30;99.90
4828;DHT22;2428;48.732;9.148;2022-12-29T16:57:06;9.30;99.90
4828;DHT22;2428;48.732;9.148;2022-12-29T16:59:38;9.40;99.90
4828;DHT22;2428;48.732;9.148;2022-12-29T17:02:14;9.40;99.90
4828;DHT22;2428;48.732;9.148;2022-12-29T17:04:40;9.40;99.90
4828;DHT22;2428;48.732;9.148;2022-12-29T17:07:16;9.40;99.90
4828;DHT22;2428;48.732;9.148;2022-12-29T17:09:42;9.30;99.90
4828;DHT22;2428;48.732;9.148;2022-12-29T17:12:15;9.20;99.90
4828;DHT22;2428;48.732;9.148;2022-12-29T17:14:59;9.20;99.90
4828;DHT22;2428;48.732;9.148;2022-12-29T17:17:54;9.20;99.90
4828;DHT22;2428;48.732;9.148;2022-12-29T17:20:24;9.20;99.90
4828;DHT22;2428;48.732;9.148;2022-12-29T17:22:51;9.20;99.90
4828;DHT22;2428;48.732;9.148;2022-12-29T17:25:30;9.10;99.90
4828;DHT22;2428;48.732;9.148;2022-12-29T17:28:02;9.00;99.90
4828;DHT22;2428;48.732;9.148;2022-12-29T17:30:29;9.00;99.90
4828;DHT22;2428;48.732;9.148;2022-12-29T17:33:03;9.00;99.90
4828;DHT22;2428;48.732;9.148;2022-12-29T17:35:29;9.00;99.90
4828;DHT22;2428;48.732;9.148;2022-12-29T17:37:55;9.00;99.90
4828;DHT22;2428;48.732;9.148;2022-12-29T17:40:31;9.00;99.90
4828;DHT22;2428;48.732;9.148;2022-12-29T17:42:58;9.00;99.90
4828;DHT22;2428;48.732;9.148;2022-12-29T17:45:28;9.10;99.90
4828;DHT22;2428;48.732;9.148;2022-12-29T17:47:55;9.00;99.90
4828;DHT22;2428;48.732;9.148;2022-12-29T17:50:26;9.00;99.90
4828;DHT22;2428;48.732;9.148;2022-12-29T17:52:54;9.00;99.90
4828;DHT22;2428;48.732;9.148;2022-12-29T17:55:22;9.00;99.90
4828;DHT22;2428;48.732;9.148;2022-12-29T17:57:48;8.90;99.90
4828;DHT22;2428;48.732;9.148;2022-12-29T18:00:25;8.90;99.90
4828;DHT22;2428;48.732;9.148;2022-12-29T18:02:55;8.90;99.90
4828;DHT22;2428;48.732;9.148;2022-12-29T18:05:25;9.00;99.90
4828;DHT22;2428;48.732;9.148;2022-12-29T18:07:53;9.00;99.90
4828;DHT22;2428;48.732;9.148;2022-12-29T18:10:23;9.00;99.90
4828;DHT22;2428;48.732;9.148;2022-12-29T18:12:51;9.00;99.90
4828;DHT22;2428;48.732;9.148;2022-12-29T18:18:01;9.00;99.90
4828;DHT22;2428;48.732;9.148;2022-12-29T18:20:28;9.00;99.90
4828;DHT22;2428;48.732;9.148;2022-12-29T18:22:55;9.00;99.90
4828;DHT22;2428;48.732;9.148;2022-12-29T18:28:06;9.00;99.90
4828;DHT22;2428;48.732;9.148;2022-12-29T18:30:31;8.90;99.90
4828;DHT22;2428;48.732;9.148;2022-12-29T18:32:57;8.80;99.90
4828;DHT22;2428;48.732;9.148;2022-12-29T18:35:27;8.70;99.90
4828;DHT22;2428;48.732;9.148;2022-12-29T18:37:54;8.70;99.90
4828;DHT22;2428;48.732;9.148;2022-12-29T18:40:20;8.60;99.90
4828;DHT22;2428;48.732;9.148;2022-12-29T18:42:45;8.50;99.90
4828;DHT22;2428;48.732;9.148;2022-12-29T18:45:17;8.50;99.90
4828;DHT22;2428;48.732;9.148;2022-12-29T18:47:43;8.40;99.90
4828;DHT22;2428;48.732;9.148;2022-12-29T18:50:09;8.50;99.90
4828;DHT22;2428;48.732;9.148;2022-12-29T18:52:35;8.50;99.90